Buoy 43528

sailwx.info

Track history (hours):
 
Tides and Currents Weather Stations Pressure Air Temp Water Temp Dewpoint Dewpoint Depression Visibility Wind Speed Wind Dir Waves Ship Positions

Drifting buoy 43528

Last reported at 2016-May-17 17:00 UTC. Time now 2016-Jul-26 10:21 UTC.
Position N 27°06' E 142°12'.
Warning: this ship's position is months out of date.

Water temperature 20.9 ° C

Date/timePositionNaut miles runAvg speedWind from/ knotsBaromVisibWave heightAir tempDewpointWater temp
2016-May-17 17:00N 27°06' E 142°12'0 0.0 20.9
2016-May-17 16:00N 27°06' E 142°12'0 0.0 21.3
2016-May-17 11:00N 27°06' E 142°12'0 0.0 23.7
2016-May-17 09:00N 27°06' E 142°12'0 0.1 24.7
2016-May-17 08:00N 27°06' E 142°12'0 0.0 25.2
2016-May-17 04:00N 27°06' E 142°12'1 0.2 26.5
2016-May-17 01:00N 27°06' E 142°13'0 0.5 24.5
2016-May-17 00:00N 27°06' E 142°12'0 0.0 24.8
2016-May-16 23:00N 27°06' E 142°12'0 0.2 25.3
2016-May-16 22:00N 27°06' E 142°12'0 0.2 23.8
2016-May-16 21:00N 27°06' E 142°12'0 0.2 22.3
2016-May-16 20:00N 27°06' E 142°12'1 0.8 20.9
2016-May-16 19:00N 27°06' E 142°11'1 0.3 21.0
2016-May-16 17:00N 27°06' E 142°11'0 0.0 21.4
2016-May-16 16:00N 27°06' E 142°11'1 0.3 21.7
2016-May-16 12:00N 27°06' E 142°12'0 0.2 22.8
2016-May-16 11:00N 27°06' E 142°12'0 0.1 22.9
2016-May-16 10:00N 27°06' E 142°12'0 0.0 23.1
2016-May-16 09:00N 27°06' E 142°12'0 0.2 23.6
2016-May-16 08:00N 27°06' E 142°12'0 0.2 24.3
2016-May-16 07:00N 27°06' E 142°12'0 0.0 24.5
2016-May-16 05:00N 27°06' E 142°12'0 0.1 24.6
2016-May-16 00:00N 27°06' E 142°13'1 0.5 26.3
2016-May-15 23:00N 27°06' E 142°13'1 0.3 23.9
2016-May-15 20:00N 27°06' E 142°12'0 0.0 21.2
2016-May-15 17:00N 27°06' E 142°12'0 0.0 21.9
2016-May-15 16:00N 27°06' E 142°12'1 0.1 22.2
2016-May-15 12:00N 27°06' E 142°13'0 0.1 22.7
2016-May-15 11:00N 27°06' E 142°13'0 0.4 22.8
2016-May-15 10:00N 27°06' E 142°12'0 0.1 23.0
2016-May-15 08:00N 27°06' E 142°12'0 0.2 24.6
2016-May-15 07:00N 27°06' E 142°12'0 0.1 25.1
2016-May-15 06:00N 27°06' E 142°12'0 0.1 25.8
2016-May-15 05:00N 27°06' E 142°12'0 0.1 26.2
2016-May-15 03:00N 27°06' E 142°12'0 0.0 27.7
2016-May-15 01:00N 27°06' E 142°12'0 0.4 26.7
2016-May-15 00:00N 27°06' E 142°12'0 0.0 26.5
2016-May-14 23:00N 27°06' E 142°12'0 0.1 25.8
2016-May-14 20:00N 27°06' E 142°13'0 0.1 23.4
2016-May-14 16:00N 27°06' E 142°12'0 0.0 23.9
2016-May-14 12:00N 27°06' E 142°12'0 0.0 24.6
2016-May-14 11:00N 27°06' E 142°12'0 0.1 25.2
2016-May-14 10:00N 27°06' E 142°12'0 0.0 25.8
2016-May-14 09:00N 27°06' E 142°12'0 0.5 26.6
2016-May-14 08:00N 27°06' E 142°12'0 0.1 27.1
2016-May-14 05:00N 27°06' E 142°12'0 0.0 27.6
2016-May-14 04:00N 27°06' E 142°12'0 0.2 28.0
2016-May-14 03:00N 27°06' E 142°12'0 0.0 28.9
2016-May-14 01:00N 27°06' E 142°12'0 0.0 28.3
2016-May-14 00:00N 27°06' E 142°12'0 0.2 27.3
2016-May-13 23:00N 27°06' E 142°12'0 0.0 26.1
2016-May-13 21:00N 27°06' E 142°12'0 0.1 24.8
2016-May-13 20:00N 27°06' E 142°12'0 0.1 24.2
2016-May-13 19:00N 27°06' E 142°12'0 0.0 24.5
2016-May-13 18:00N 27°06' E 142°12'1 0.7 24.6
2016-May-13 17:00N 27°05' E 142°13'0 0.0 24.8
2016-May-13 16:00N 27°05' E 142°13'1 0.1 25.0
2016-May-13 11:00N 27°06' E 142°12'0 0.4 25.5
2016-May-13 10:00N 27°06' E 142°13'0 0.0 25.9
2016-May-13 09:00N 27°06' E 142°13'1 0.1 26.3
2016-May-13 04:00N 27°06' E 142°12'0 0.4 29.0
2016-May-13 03:00N 27°06' E 142°12'0 0.0 31.4
2016-May-13 01:00N 27°06' E 142°12'0 0.0 30.2
2016-May-13 00:00N 27°06' E 142°12'1 0.6 28.7
2016-May-12 23:00N 27°06' E 142°12'0 0.2 26.9
2016-May-12 21:00N 27°06' E 142°12'0 0.1 25.2
2016-May-12 20:00N 27°06' E 142°12'0 0.1 24.8
2016-May-12 18:00N 27°06' E 142°12'0 0.3 24.9
2016-May-12 17:00N 27°06' E 142°12'0 0.0 25.2
2016-May-12 10:00N 27°06' E 142°12'0 0.0 27.0
2016-May-12 01:00N 27°06' E 142°12'0 0.2 31.4
2016-May-12 00:00N 27°06' E 142°12'0 0.1 29.7
2016-May-11 21:00N 27°06' E 142°12'0 0.0 26.2
2016-May-11 18:00N 27°06' E 142°12'0 0.0 25.6
2016-May-11 10:00N 27°06' E 142°12'0 0.0 27.5
2016-May-11 01:00N 27°06' E 142°12'0 0.0 29.0
2016-May-11 00:00N 27°06' E 142°12'0 0.1 27.5
2016-May-10 21:00N 27°06' E 142°12'27 3.0 25.5
2016-May-10 12:00N 26°40' E 142°05'18 5.9 25.3
2016-May-10 09:00N 26°22' E 142°02'7 7.1 27.1
2016-May-10 08:00N 26°15' E 142°00'4 3.7 27.6
2016-May-10 07:00N 26°12' E 141°60'1918.8 27.8
2016-May-10 06:00N 25°53' E 141°58'19 3.8 28.3
2016-May-10 01:00N 25°34' E 141°55'1110.8 29.4
2016-May-10 00:00N 25°23' E 141°54'0 0.0 29.2
2016-May-09 23:00N 25°23' E 141°54'28 6.9 28.3
2016-May-09 19:00N 24°56' E 141°50'1414.2 25.5
2016-May-09 18:00N 24°42' E 141°50'0 0.1 25.8
2016-May-09 17:00N 24°42' E 141°50'0 0.0 26.0
2016-May-09 16:00N 24°42' E 141°50'33 8.1 26.3
2016-May-09 12:00N 24°09' E 141°46'6 6.3 26.9
2016-May-09 11:00N 24°03' E 141°44'1615.6 27.2
2016-May-09 10:00N 23°48' E 141°45'3 3.2 27.4
2016-May-09 09:00N 23°45' E 141°43'1010.0 28.0
2016-May-09 08:00N 23°52' E 141°50'0 0.0 30.0
2016-May-09 07:00N 23°52' E 141°50'0 0.0 34.6
2016-May-09 04:00N 23°52' E 141°50'6 2.0 29.5
2016-May-09 01:00N 23°49' E 141°44'1 0.6 29.9
2016-May-09 00:00N 23°49' E 141°44'3 2.7 29.0
2016-May-08 23:00N 23°48' E 141°42'0 0.0 27.6
2016-May-08 21:00N 23°48' E 141°42'1 1.3 26.5
2016-May-08 20:00N 23°46' E 141°41'5 1.6 26.7
2016-May-08 17:00N 23°50' E 141°45'0 0.0 26.8
2016-May-08 16:00N 23°50' E 141°45'7 1.9 26.8
2016-May-08 12:00N 23°43' E 141°42'0 0.0 27.6
2016-May-08 11:00N 23°43' E 141°42'12 6.1 27.7
2016-May-08 09:00N 23°53' E 141°49'4 3.8 28.2
2016-May-08 08:00N 23°56' E 141°52'1 1.0 28.2
2016-May-08 07:00N 23°55' E 141°52'10 3.3 29.6
2016-May-08 04:00N 23°48' E 141°45'0 0.0 29.9
2016-May-08 00:00N 23°48' E 141°45'3 2.5 26.6
2016-May-07 23:00N 23°46' E 141°43'0 0.0 25.9
2016-May-07 22:00N 23°46' E 141°43'1 1.4 27.3
2016-May-07 21:00N 23°44' E 141°43'1 0.5 27.3
2016-May-07 20:00N 23°44' E 141°43'2 2.3 27.2
2016-May-07 19:00N 23°42' E 141°42'0 0.0 27.3
2016-May-07 17:00N 23°42' E 141°42'   27.3
Track history (hours):
 
Tides and Currents Weather Stations Pressure Air Temp Water Temp Dewpoint Dewpoint Depression Visibility Wind Speed Wind Dir Waves Ship Positions

Drifting buoy 43528

Last reported at 2016-May-17 17:00 UTC. Time now 2016-Jul-26 10:21 UTC.
Position N 27°06' E 142°12'.
Warning: this ship's position is months out of date.

Water temperature 20.9 ° C

Date/timePositionNaut miles runAvg speedWind from/ knotsBaromVisibWave heightAir tempDewpointWater temp
2016-May-17 17:00N 27°06' E 142°12'0 0.0 20.9
2016-May-17 16:00N 27°06' E 142°12'0 0.0 21.3
2016-May-17 11:00N 27°06' E 142°12'0 0.0 23.7
2016-May-17 09:00N 27°06' E 142°12'0 0.1 24.7
2016-May-17 08:00N 27°06' E 142°12'0 0.0 25.2
2016-May-17 04:00N 27°06' E 142°12'1 0.2 26.5
2016-May-17 01:00N 27°06' E 142°13'0 0.5 24.5
2016-May-17 00:00N 27°06' E 142°12'0 0.0 24.8
2016-May-16 23:00N 27°06' E 142°12'0 0.2 25.3
2016-May-16 22:00N 27°06' E 142°12'0 0.2 23.8
2016-May-16 21:00N 27°06' E 142°12'0 0.2 22.3
2016-May-16 20:00N 27°06' E 142°12'1 0.8 20.9
2016-May-16 19:00N 27°06' E 142°11'1 0.3 21.0
2016-May-16 17:00N 27°06' E 142°11'0 0.0 21.4
2016-May-16 16:00N 27°06' E 142°11'1 0.3 21.7
2016-May-16 12:00N 27°06' E 142°12'0 0.2 22.8
2016-May-16 11:00N 27°06' E 142°12'0 0.1 22.9
2016-May-16 10:00N 27°06' E 142°12'0 0.0 23.1
2016-May-16 09:00N 27°06' E 142°12'0 0.2 23.6
2016-May-16 08:00N 27°06' E 142°12'0 0.2 24.3
2016-May-16 07:00N 27°06' E 142°12'0 0.0 24.5
2016-May-16 05:00N 27°06' E 142°12'0 0.1 24.6
2016-May-16 00:00N 27°06' E 142°13'1 0.5 26.3
2016-May-15 23:00N 27°06' E 142°13'1 0.3 23.9
2016-May-15 20:00N 27°06' E 142°12'0 0.0 21.2
2016-May-15 17:00N 27°06' E 142°12'0 0.0 21.9
2016-May-15 16:00N 27°06' E 142°12'1 0.1 22.2
2016-May-15 12:00N 27°06' E 142°13'0 0.1 22.7
2016-May-15 11:00N 27°06' E 142°13'0 0.4 22.8
2016-May-15 10:00N 27°06' E 142°12'0 0.1 23.0
2016-May-15 08:00N 27°06' E 142°12'0 0.2 24.6
2016-May-15 07:00N 27°06' E 142°12'0 0.1 25.1
2016-May-15 06:00N 27°06' E 142°12'0 0.1 25.8
2016-May-15 05:00N 27°06' E 142°12'0 0.1 26.2
2016-May-15 03:00N 27°06' E 142°12'0 0.0 27.7
2016-May-15 01:00N 27°06' E 142°12'0 0.4 26.7
2016-May-15 00:00N 27°06' E 142°12'0 0.0 26.5
2016-May-14 23:00N 27°06' E 142°12'0 0.1 25.8
2016-May-14 20:00N 27°06' E 142°13'0 0.1 23.4
2016-May-14 16:00N 27°06' E 142°12'0 0.0 23.9
2016-May-14 12:00N 27°06' E 142°12'0 0.0 24.6
2016-May-14 11:00N 27°06' E 142°12'0 0.1 25.2
2016-May-14 10:00N 27°06' E 142°12'0 0.0 25.8
2016-May-14 09:00N 27°06' E 142°12'0 0.5 26.6
2016-May-14 08:00N 27°06' E 142°12'0 0.1 27.1
2016-May-14 05:00N 27°06' E 142°12'0 0.0 27.6
2016-May-14 04:00N 27°06' E 142°12'0 0.2 28.0
2016-May-14 03:00N 27°06' E 142°12'0 0.0 28.9
2016-May-14 01:00N 27°06' E 142°12'0 0.0 28.3
2016-May-14 00:00N 27°06' E 142°12'0 0.2 27.3
2016-May-13 23:00N 27°06' E 142°12'0 0.0 26.1
2016-May-13 21:00N 27°06' E 142°12'0 0.1 24.8
2016-May-13 20:00N 27°06' E 142°12'0 0.1 24.2
2016-May-13 19:00N 27°06' E 142°12'0 0.0 24.5
2016-May-13 18:00N 27°06' E 142°12'1 0.7 24.6
2016-May-13 17:00N 27°05' E 142°13'0 0.0 24.8
2016-May-13 16:00N 27°05' E 142°13'1 0.1 25.0
2016-May-13 11:00N 27°06' E 142°12'0 0.4 25.5
2016-May-13 10:00N 27°06' E 142°13'0 0.0 25.9
2016-May-13 09:00N 27°06' E 142°13'1 0.1 26.3
2016-May-13 04:00N 27°06' E 142°12'0 0.4 29.0
2016-May-13 03:00N 27°06' E 142°12'0 0.0 31.4
2016-May-13 01:00N 27°06' E 142°12'0 0.0 30.2
2016-May-13 00:00N 27°06' E 142°12'1 0.6 28.7
2016-May-12 23:00N 27°06' E 142°12'0 0.2 26.9
2016-May-12 21:00N 27°06' E 142°12'0 0.1 25.2
2016-May-12 20:00N 27°06' E 142°12'0 0.1 24.8
2016-May-12 18:00N 27°06' E 142°12'0 0.3 24.9
2016-May-12 17:00N 27°06' E 142°12'0 0.0 25.2
2016-May-12 10:00N 27°06' E 142°12'0 0.0 27.0
2016-May-12 01:00N 27°06' E 142°12'0 0.2 31.4
2016-May-12 00:00N 27°06' E 142°12'0 0.1 29.7
2016-May-11 21:00N 27°06' E 142°12'0 0.0 26.2
2016-May-11 18:00N 27°06' E 142°12'0 0.0 25.6
2016-May-11 10:00N 27°06' E 142°12'0 0.0 27.5
2016-May-11 01:00N 27°06' E 142°12'0 0.0 29.0
2016-May-11 00:00N 27°06' E 142°12'0 0.1 27.5
2016-May-10 21:00N 27°06' E 142°12'27 3.0 25.5
2016-May-10 12:00N 26°40' E 142°05'18 5.9 25.3
2016-May-10 09:00N 26°22' E 142°02'7 7.1 27.1
2016-May-10 08:00N 26°15' E 142°00'4 3.7 27.6
2016-May-10 07:00N 26°12' E 141°60'1918.8 27.8
2016-May-10 06:00N 25°53' E 141°58'19 3.8 28.3
2016-May-10 01:00N 25°34' E 141°55'1110.8 29.4
2016-May-10 00:00N 25°23' E 141°54'0 0.0 29.2
2016-May-09 23:00N 25°23' E 141°54'28 6.9 28.3
2016-May-09 19:00N 24°56' E 141°50'1414.2 25.5
2016-May-09 18:00N 24°42' E 141°50'0 0.1 25.8
2016-May-09 17:00N 24°42' E 141°50'0 0.0 26.0
2016-May-09 16:00N 24°42' E 141°50'33 8.1 26.3
2016-May-09 12:00N 24°09' E 141°46'6 6.3 26.9
2016-May-09 11:00N 24°03' E 141°44'1615.6 27.2
2016-May-09 10:00N 23°48' E 141°45'3 3.2 27.4
2016-May-09 09:00N 23°45' E 141°43'1010.0 28.0
2016-May-09 08:00N 23°52' E 141°50'0 0.0 30.0
2016-May-09 07:00N 23°52' E 141°50'0 0.0 34.6
2016-May-09 04:00N 23°52' E 141°50'6 2.0 29.5
2016-May-09 01:00N 23°49' E 141°44'1 0.6 29.9
2016-May-09 00:00N 23°49' E 141°44'3 2.7 29.0
2016-May-08 23:00N 23°48' E 141°42'0 0.0 27.6
2016-May-08 21:00N 23°48' E 141°42'1 1.3 26.5
2016-May-08 20:00N 23°46' E 141°41'5 1.6 26.7
2016-May-08 17:00N 23°50' E 141°45'0 0.0 26.8
2016-May-08 16:00N 23°50' E 141°45'7 1.9 26.8
2016-May-08 12:00N 23°43' E 141°42'0 0.0 27.6
2016-May-08 11:00N 23°43' E 141°42'12 6.1 27.7
2016-May-08 09:00N 23°53' E 141°49'4 3.8 28.2
2016-May-08 08:00N 23°56' E 141°52'1 1.0 28.2
2016-May-08 07:00N 23°55' E 141°52'10 3.3 29.6
2016-May-08 04:00N 23°48' E 141°45'0 0.0 29.9
2016-May-08 00:00N 23°48' E 141°45'3 2.5 26.6
2016-May-07 23:00N 23°46' E 141°43'0 0.0 25.9
2016-May-07 22:00N 23°46' E 141°43'1 1.4 27.3
2016-May-07 21:00N 23°44' E 141°43'1 0.5 27.3
2016-May-07 20:00N 23°44' E 141°43'2 2.3 27.2
2016-May-07 19:00N 23°42' E 141°42'0 0.0 27.3
2016-May-07 17:00N 23°42' E 141°42'   27.3

Dump ship's entire track history